Time;durP1;ratioP1;P1;durP2;ratioP2;P2;SDS_P1;SDS_P2;PMS_P1;PMS_P2;Temp;Humidity;BMP_temperature;BMP_pressure;BME280_temperature;BME280_humidity;BME280_pressure;Samples;Min_cycle;Max_cycle;Signal;HPM_P1;HPM_P2
2023/09/07 00:01:14;;;;;;;145.20;135.02;;;;;;;;;;5032877;28;20053;-57
2023/09/07 00:03:40;;;;;;;51.83;48.30;;;;;;;;;;5031385;28;20056;-57
2023/09/07 00:06:06;;;;;;;118.97;110.57;;;;;;;;;;5020133;28;21269;-56
2023/09/07 00:08:32;;;;;;;126.20;117.45;;;;;;;;;;5023281;28;20025;-58
2023/09/07 00:11:02;;;;;;;36.63;33.97;;;;;;;;;;5022679;28;20021;-57
2023/09/07 00:13:27;;;;;;;203.98;189.63;;;;;;;;;;5023183;28;20014;-57
2023/09/07 00:15:52;;;;;;;101.73;94.47;;;;;;;;;;5020946;28;20018;-57
2023/09/07 00:18:18;;;;;;;59.87;55.23;;;;;;;;;;5020728;28;20116;-58
2023/09/07 00:20:43;;;;;;;94.90;88.30;;;;;;;;;;5013612;28;21167;-57
2023/09/07 00:23:08;;;;;;;163.83;152.37;;;;;;;;;;5026338;28;20017;-56
2023/09/07 00:25:33;;;;;;;35.35;32.72;;;;;;;;;;5021142;28;20029;-56
2023/09/07 00:27:58;;;;;;;83.75;77.40;;;;;;;;;;5023710;28;20022;-57
2023/09/07 00:30:23;;;;;;;53.27;49.07;;;;;;;;;;5020709;28;20650;-57
2023/09/07 00:32:49;;;;;;;68.57;63.60;;;;;;;;;;5018056;28;20025;-58
2023/09/07 00:35:14;;;;;;;38.23;35.43;;;;;;;;;;5014985;28;20438;-57
2023/09/07 00:37:39;;;;;;;113.07;104.77;;;;;;;;;;5024164;28;20029;-57
2023/09/07 00:40:08;;;;;;;65.27;60.93;;;;;;;;;;5019076;28;20029;-58
2023/09/07 00:42:33;;;;;;;64.55;59.97;;;;;;;;;;5023242;28;20029;-58
2023/09/07 00:44:58;;;;;;;86.63;80.97;;;;;;;;;;5030610;28;20017;-58
2023/09/07 00:47:24;;;;;;;100.77;93.93;;;;;;;;;;5027569;28;20028;-57
2023/09/07 00:49:49;;;;;;;102.10;95.30;;;;;;;;;;5022392;28;20025;-58
2023/09/07 00:52:15;;;;;;;117.38;109.63;;;;;;;;;;5022786;28;20155;-59
2023/09/07 00:54:40;;;;;;;34.73;32.17;;;;;;;;;;5015350;28;20422;-58
2023/09/07 00:57:06;;;;;;;95.57;88.53;;;;;;;;;;5022812;28;20032;-58
2023/09/07 00:59:32;;;;;;;144.65;134.45;;;;;;;;;;5019279;28;20033;-58
2023/09/07 01:01:57;;;;;;;97.35;90.47;;;;;;;;;;5024907;28;20025;-58
2023/09/07 01:04:22;;;;;;;88.93;82.63;;;;;;;;;;5026376;28;20060;-58
2023/09/07 01:06:52;;;;;;;33.25;30.77;;;;;;;;;;5026383;28;20445;-57
2023/09/07 01:09:19;;;;;;;34.00;31.52;;;;;;;;;;5022891;28;20033;-56
2023/09/07 01:11:44;;;;;;;83.03;77.38;;;;;;;;;;5021442;28;20032;-56
2023/09/07 01:14:10;;;;;;;98.53;92.67;;;;;;;;;;5020961;28;20029;-56
2023/09/07 01:16:38;;;;;;;64.07;59.42;;;;;;;;;;5026672;28;21687;-56
2023/09/07 01:19:04;;;;;;;58.38;53.97;;;;;;;;;;5018166;28;20030;-58
2023/09/07 01:21:37;;;;;;;95.30;89.10;;;;;;;;;;5039890;28;20033;-59
2023/09/07 01:24:08;;;;;;;69.15;64.18;;;;;;;;;;5034704;28;20104;-58
2023/09/07 01:26:34;;;;;;;52.03;48.38;;;;;;;;;;5031256;28;20025;-58
2023/09/07 01:29:00;;;;;;;43.30;40.25;;;;;;;;;;5030919;28;20087;-57
2023/09/07 01:31:25;;;;;;;39.65;37.00;;;;;;;;;;5023792;28;20497;-59
2023/09/07 01:33:50;;;;;;;138.38;129.30;;;;;;;;;;5028773;28;20016;-58
2023/09/07 01:36:15;;;;;;;33.77;31.27;;;;;;;;;;5050814;28;20131;-58
2023/09/07 01:38:41;;;;;;;153.05;142.60;;;;;;;;;;5035950;28;20034;-58
2023/09/07 01:41:06;;;;;;;38.10;35.10;;;;;;;;;;5022620;28;20444;-59
2023/09/07 01:43:31;;;;;;;137.05;126.60;;;;;;;;;;5035878;28;20480;-58
2023/09/07 01:45:56;;;;;;;90.27;84.20;;;;;;;;;;5041033;28;20032;-58
2023/09/07 01:48:21;;;;;;;146.77;135.93;;;;;;;;;;5020032;28;20139;-59
2023/09/07 01:50:46;;;;;;;157.60;146.63;;;;;;;;;;5016391;28;20014;-58
2023/09/07 01:53:12;;;;;;;77.35;71.80;;;;;;;;;;5015891;28;20026;-58
2023/09/07 01:55:37;;;;;;;41.27;38.30;;;;;;;;;;5010506;28;20029;-58
2023/09/07 01:58:02;;;;;;;60.80;56.30;;;;;;;;;;5010975;28;20048;-58
2023/09/07 02:00:27;;;;;;;44.65;41.33;;;;;;;;;;5021157;28;20022;-57
2023/09/07 02:02:53;;;;;;;48.17;44.50;;;;;;;;;;5017001;28;20014;-59
2023/09/07 02:05:18;;;;;;;50.92;47.38;;;;;;;;;;5010782;28;20026;-58
2023/09/07 02:07:43;;;;;;;142.67;133.23;;;;;;;;;;5016309;28;20032;-59
2023/09/07 02:10:09;;;;;;;68.40;63.63;;;;;;;;;;5013244;28;20036;-59
2023/09/07 02:12:34;;;;;;;176.45;164.00;;;;;;;;;;5010561;28;20049;-59
2023/09/07 02:15:01;;;;;;;57.87;53.73;;;;;;;;;;5015124;28;20030;-58
2023/09/07 02:17:27;;;;;;;129.15;120.55;;;;;;;;;;5023631;28;20030;-58
2023/09/07 02:19:52;;;;;;;99.10;92.57;;;;;;;;;;5018641;28;20010;-58
2023/09/07 02:22:17;;;;;;;67.97;63.30;;;;;;;;;;5025465;28;20014;-59
2023/09/07 02:24:42;;;;;;;67.25;62.47;;;;;;;;;;5023888;28;20037;-59
2023/09/07 02:27:07;;;;;;;463.03;424.57;;;;;;;;;;5016215;28;20013;-58
2023/09/07 02:29:32;;;;;;;528.47;484.87;;;;;;;;;;5022311;28;20101;-58
2023/09/07 02:31:58;;;;;;;561.10;513.88;;;;;;;;;;5012730;28;20022;-59
2023/09/07 02:34:23;;;;;;;637.57;583.67;;;;;;;;;;5010671;28;20054;-58
2023/09/07 02:36:48;;;;;;;725.07;658.97;;;;;;;;;;5019167;28;20049;-59
2023/09/07 02:39:13;;;;;;;705.47;643.90;;;;;;;;;;5016457;28;20322;-59
2023/09/07 02:41:38;;;;;;;688.53;627.55;;;;;;;;;;5017184;28;20147;-59
2023/09/07 02:44:04;;;;;;;619.33;563.57;;;;;;;;;;5021430;28;20104;-58
2023/09/07 02:46:29;;;;;;;741.00;675.00;;;;;;;;;;5021952;28;20029;-58
2023/09/07 02:48:57;;;;;;;673.20;614.05;;;;;;;;;;5022482;28;20028;-58
2023/09/07 02:51:22;;;;;;;570.00;521.47;;;;;;;;;;5022816;28;20393;-56
2023/09/07 02:53:47;;;;;;;636.13;580.83;;;;;;;;;;5015550;28;20489;-59
2023/09/07 02:56:13;;;;;;;617.50;564.27;;;;;;;;;;5029479;28;20032;-59
2023/09/07 02:58:38;;;;;;;770.63;700.77;;;;;;;;;;5016144;28;20022;-58
2023/09/07 03:01:05;;;;;;;736.53;672.67;;;;;;;;;;5010769;28;20503;-59
2023/09/07 03:03:31;;;;;;;614.55;557.00;;;;;;;;;;5011127;28;20109;-59
2023/09/07 03:05:56;;;;;;;664.38;604.80;;;;;;;;;;5011126;28;20060;-58
2023/09/07 03:08:21;;;;;;;645.00;586.17;;;;;;;;;;5019333;28;20022;-58
2023/09/07 03:10:46;;;;;;;649.57;592.27;;;;;;;;;;5016893;28;20038;-59
2023/09/07 03:13:11;;;;;;;686.20;624.27;;;;;;;;;;5013640;28;20097;-58
2023/09/07 03:15:37;;;;;;;726.65;659.35;;;;;;;;;;5018657;28;20083;-59
2023/09/07 03:18:03;;;;;;;696.67;633.83;;;;;;;;;;5025597;28;20049;-59
2023/09/07 03:20:28;;;;;;;734.28;667.17;;;;;;;;;;5025323;28;20100;-58
2023/09/07 03:22:53;;;;;;;808.73;731.77;;;;;;;;;;5024276;28;20370;-58
2023/09/07 03:25:18;;;;;;;612.47;555.23;;;;;;;;;;5024288;28;20117;-60
2023/09/07 03:27:43;;;;;;;610.33;554.20;;;;;;;;;;5023030;28;20018;-58
2023/09/07 03:30:09;;;;;;;715.72;648.00;;;;;;;;;;5020913;28;20028;-59
2023/09/07 03:32:35;;;;;;;737.67;671.55;;;;;;;;;;5029920;28;20374;-58
2023/09/07 03:35:04;;;;;;;698.77;635.50;;;;;;;;;;5024690;28;20032;-59
2023/09/07 03:37:31;;;;;;;663.58;604.60;;;;;;;;;;5021876;28;20021;-59
2023/09/07 03:39:57;;;;;;;827.43;749.27;;;;;;;;;;5013938;28;20381;-59
2023/09/07 03:42:22;;;;;;;557.53;507.87;;;;;;;;;;5021370;28;20025;-59
2023/09/07 03:44:47;;;;;;;607.50;553.15;;;;;;;;;;5016637;28;20116;-59
2023/09/07 03:47:13;;;;;;;725.40;659.80;;;;;;;;;;5018992;28;20064;-60
2023/09/07 03:49:38;;;;;;;710.53;646.55;;;;;;;;;;5021224;28;20017;-59
2023/09/07 03:52:04;;;;;;;570.23;519.57;;;;;;;;;;5013072;28;20026;-59
2023/09/07 03:54:30;;;;;;;669.13;609.77;;;;;;;;;;5013252;28;20026;-59
2023/09/07 03:56:55;;;;;;;653.97;596.13;;;;;;;;;;5013263;28;20433;-59
2023/09/07 03:59:20;;;;;;;704.53;640.43;;;;;;;;;;5015724;28;20105;-58
2023/09/07 04:01:45;;;;;;;663.90;609.70;;;;;;;;;;5019967;28;20044;-59
2023/09/07 04:04:11;;;;;;;677.83;618.40;;;;;;;;;;5012978;28;20401;-58
2023/09/07 04:06:36;;;;;;;636.17;579.77;;;;;;;;;;5024615;28;20901;-60
2023/09/07 04:09:01;;;;;;;644.75;588.00;;;;;;;;;;5019714;28;20026;-59
2023/09/07 04:11:26;;;;;;;678.10;618.90;;;;;;;;;;5015341;28;20400;-59
2023/09/07 04:13:51;;;;;;;550.67;501.57;;;;;;;;;;5022261;28;20029;-58
2023/09/07 04:16:16;;;;;;;603.77;550.13;;;;;;;;;;5012808;28;20599;-58
2023/09/07 04:18:44;;;;;;;736.40;670.77;;;;;;;;;;5023816;28;20055;-58
2023/09/07 04:21:09;;;;;;;660.75;600.95;;;;;;;;;;5015909;28;20022;-58
2023/09/07 04:23:34;;;;;;;696.33;635.07;;;;;;;;;;5046526;28;20392;-59
2023/09/07 04:26:18;;;;;;;671.15;612.28;;;;;;;;;;5021054;28;20018;-59
2023/09/07 04:28:43;;;;;;;732.35;669.88;;;;;;;;;;5016250;28;20029;-58
2023/09/07 04:31:08;;;;;;;628.03;573.57;;;;;;;;;;5020079;28;20025;-58
2023/09/07 04:33:33;;;;;;;825.47;746.67;;;;;;;;;;5019670;28;20072;-58
2023/09/07 04:36:11;;;;;;;571.47;521.60;;;;;;;;;;5013859;28;20033;-58
2023/09/07 04:38:37;;;;;;;709.85;646.55;;;;;;;;;;5026277;28;20017;-58
2023/09/07 04:41:09;;;;;;;626.50;571.00;;;;;;;;;;5024142;28;20017;-59
2023/09/07 04:43:34;;;;;;;615.13;560.92;;;;;;;;;;5016313;28;20036;-58
2023/09/07 04:45:59;;;;;;;644.22;588.85;;;;;;;;;;5013613;28;20014;-58
2023/09/07 04:48:25;;;;;;;617.67;564.10;;;;;;;;;;5017146;28;20290;-58
2023/09/07 04:50:57;;;;;;;674.43;618.13;;;;;;;;;;5007478;28;20014;-58
2023/09/07 04:53:22;;;;;;;570.42;519.85;;;;;;;;;;5020114;28;20022;-58
2023/09/07 04:55:47;;;;;;;629.63;574.60;;;;;;;;;;5018025;28;20018;-58
2023/09/07 04:58:13;;;;;;;717.28;653.78;;;;;;;;;;5008128;28;20195;-58
2023/09/07 05:00:38;;;;;;;597.87;544.83;;;;;;;;;;5018027;28;20030;-55
2023/09/07 05:03:03;;;;;;;634.70;579.88;;;;;;;;;;5014486;28;20029;-58
2023/09/07 05:05:28;;;;;;;600.37;548.27;;;;;;;;;;5012663;28;20040;-58
2023/09/07 05:07:54;;;;;;;658.47;601.43;;;;;;;;;;5026107;28;20484;-59
2023/09/07 05:10:19;;;;;;;631.38;575.03;;;;;;;;;;5027420;28;20030;-58
2023/09/07 05:12:44;;;;;;;616.30;564.30;;;;;;;;;;5023709;28;20018;-58
2023/09/07 05:15:09;;;;;;;522.63;477.40;;;;;;;;;;5022142;28;20029;-58
2023/09/07 05:17:35;;;;;;;620.00;566.10;;;;;;;;;;5024389;28;20044;-59
2023/09/07 05:20:00;;;;;;;566.22;516.38;;;;;;;;;;5022338;28;20567;-59
2023/09/07 05:22:26;;;;;;;582.77;531.80;;;;;;;;;;5028838;28;20018;-58
2023/09/07 05:24:51;;;;;;;675.08;619.58;;;;;;;;;;5024953;28;20425;-59
2023/09/07 05:27:16;;;;;;;578.80;526.37;;;;;;;;;;5020914;28;20136;-58
2023/09/07 05:29:41;;;;;;;541.77;494.23;;;;;;;;;;5028521;28;20026;-58
2023/09/07 05:32:09;;;;;;;726.10;661.20;;;;;;;;;;5030141;28;20036;-58
2023/09/07 05:34:34;;;;;;;698.00;636.88;;;;;;;;;;5048142;28;20660;-59
2023/09/07 05:36:59;;;;;;;718.47;659.27;;;;;;;;;;5050492;28;20100;-58
2023/09/07 05:39:24;;;;;;;695.97;633.77;;;;;;;;;;5037099;28;20021;-58
2023/09/07 05:41:49;;;;;;;652.43;595.47;;;;;;;;;;5022998;28;20018;-58
2023/09/07 05:44:14;;;;;;;642.00;584.83;;;;;;;;;;5028789;28;20021;-58
2023/09/07 05:46:40;;;;;;;607.83;553.30;;;;;;;;;;5041202;28;20032;-58
2023/09/07 05:49:05;;;;;;;648.43;587.30;;;;;;;;;;5027070;28;20024;-59
2023/09/07 05:51:30;;;;;;;666.60;603.67;;;;;;;;;;5029952;28;20056;-56
2023/09/07 05:53:55;;;;;;;605.80;547.07;;;;;;;;;;5013479;28;20046;-59
2023/09/07 05:56:20;;;;;;;681.30;618.00;;;;;;;;;;5018754;28;20024;-59
2023/09/07 05:58:45;;;;;;;665.57;603.57;;;;;;;;;;5026836;28;20033;-58
2023/09/07 06:01:11;;;;;;;652.78;590.97;;;;;;;;;;5012514;28;20028;-58
2023/09/07 06:03:36;;;;;;;689.27;630.90;;;;;;;;;;5026725;28;20033;-58
2023/09/07 06:06:02;;;;;;;675.67;616.60;;;;;;;;;;5046954;28;20029;-59
2023/09/07 06:08:27;;;;;;;658.45;601.25;;;;;;;;;;5016348;28;20044;-59
2023/09/07 06:10:53;;;;;;;542.03;494.77;;;;;;;;;;5037971;28;20484;-62
2023/09/07 06:13:18;;;;;;;462.88;420.23;;;;;;;;;;5026904;28;20043;-58
2023/09/07 06:15:43;;;;;;;574.77;522.63;;;;;;;;;;5029043;28;20025;-58
2023/09/07 06:18:08;;;;;;;439.48;403.10;;;;;;;;;;5046904;28;20024;-58
2023/09/07 06:20:35;;;;;;;456.23;418.93;;;;;;;;;;5018298;28;20041;-58
2023/09/07 06:23:00;;;;;;;548.08;502.55;;;;;;;;;;5015667;28;20034;-58
2023/09/07 06:25:25;;;;;;;409.60;376.77;;;;;;;;;;5021413;28;20496;-56
2023/09/07 06:27:50;;;;;;;402.00;368.23;;;;;;;;;;5021931;28;20052;-56
2023/09/07 06:30:15;;;;;;;391.67;360.83;;;;;;;;;;5022881;28;20037;-59
2023/09/07 06:32:42;;;;;;;370.70;341.70;;;;;;;;;;5020698;28;20593;-56
2023/09/07 06:35:07;;;;;;;;;;;;;;;;;;5023770;28;20361;-56
2023/09/07 06:37:32;;;;;;;469.48;431.27;;;;;;;;;;5014336;28;21195;-56
2023/09/07 06:39:57;;;;;;;503.80;461.97;;;;;;;;;;5021012;28;20167;-56
2023/09/07 06:42:22;;;;;;;471.38;434.13;;;;;;;;;;5026438;28;20043;-57
2023/09/07 06:44:47;;;;;;;322.67;296.17;;;;;;;;;;5024221;28;20038;-56
2023/09/07 06:47:13;;;;;;;39.57;36.83;;;;;;;;;;5018223;28;20017;-57
2023/09/07 06:49:38;;;;;;;112.17;104.87;;;;;;;;;;5015516;28;20058;-57
2023/09/07 06:52:03;;;;;;;38.50;36.13;;;;;;;;;;5023249;28;20060;-56
2023/09/07 06:54:28;;;;;;;41.63;38.60;;;;;;;;;;5019922;28;20460;-57
2023/09/07 06:56:53;;;;;;;213.97;198.63;;;;;;;;;;5021714;28;20041;-57
2023/09/07 06:59:19;;;;;;;120.33;112.17;;;;;;;;;;5027448;28;20633;-58
2023/09/07 07:01:44;;;;;;;142.40;131.90;;;;;;;;;;5026911;28;20022;-58
2023/09/07 07:04:09;;;;;;;88.57;81.82;;;;;;;;;;5032117;28;20036;-57
2023/09/07 07:06:34;;;;;;;54.92;50.53;;;;;;;;;;5028295;28;20473;-58
2023/09/07 07:09:00;;;;;;;188.67;174.67;;;;;;;;;;5027880;28;20028;-58
2023/09/07 07:11:25;;;;;;;63.50;58.80;;;;;;;;;;5027998;28;20076;-57
2023/09/07 07:13:50;;;;;;;95.90;88.77;;;;;;;;;;5032999;28;20441;-58
2023/09/07 07:16:16;;;;;;;82.50;76.60;;;;;;;;;;5025521;28;20671;-57
2023/09/07 07:18:41;;;;;;;167.40;154.95;;;;;;;;;;5031867;28;20023;-58
2023/09/07 07:21:06;;;;;;;163.37;150.93;;;;;;;;;;5041035;28;20017;-57
2023/09/07 07:23:32;;;;;;;95.27;88.80;;;;;;;;;;5015667;28;20516;-58
2023/09/07 07:25:57;;;;;;;114.43;106.57;;;;;;;;;;5025806;28;20112;-57
2023/09/07 07:28:22;;;;;;;99.47;92.33;;;;;;;;;;5021660;28;20017;-58
2023/09/07 07:30:48;;;;;;;129.37;118.87;;;;;;;;;;5021434;28;20547;-58
2023/09/07 07:33:13;;;;;;;60.15;56.25;;;;;;;;;;5012979;28;20022;-57
2023/09/07 07:35:38;;;;;;;157.48;146.43;;;;;;;;;;5024857;28;20021;-57
2023/09/07 07:38:04;;;;;;;129.97;121.10;;;;;;;;;;5030603;28;20048;-58
2023/09/07 07:40:29;;;;;;;81.57;75.97;;;;;;;;;;5028215;28;20104;-58
2023/09/07 07:42:54;;;;;;;64.13;59.78;;;;;;;;;;5020177;28;20454;-57
2023/09/07 07:45:20;;;;;;;143.90;133.10;;;;;;;;;;5013454;28;20146;-58
2023/09/07 07:47:45;;;;;;;99.57;93.00;;;;;;;;;;5014351;28;20018;-57
2023/09/07 07:50:10;;;;;;;170.77;158.50;;;;;;;;;;5040984;28;20444;-59
2023/09/07 07:52:36;;;;;;;208.83;194.90;;;;;;;;;;5025449;28;20040;-57
2023/09/07 07:55:01;;;;;;;190.13;177.30;;;;;;;;;;5020121;28;20022;-57
2023/09/07 07:57:26;;;;;;;223.37;207.77;;;;;;;;;;5013148;28;20018;-58
2023/09/07 07:59:51;;;;;;;207.88;192.30;;;;;;;;;;5011958;28;20022;-58
2023/09/07 08:02:16;;;;;;;144.30;134.03;;;;;;;;;;5018075;28;20025;-57
2023/09/07 08:04:41;;;;;;;205.13;189.97;;;;;;;;;;5047867;28;20033;-59
2023/09/07 08:07:08;;;;;;;117.87;108.07;;;;;;;;;;5022896;28;20033;-57
2023/09/07 08:09:33;;;;;;;307.25;283.98;;;;;;;;;;5023128;28;20096;-58
2023/09/07 08:12:02;;;;;;;202.88;189.45;;;;;;;;;;5012832;28;20081;-58
2023/09/07 08:14:28;;;;;;;248.70;231.45;;;;;;;;;;5012758;28;20026;-56
2023/09/07 08:16:53;;;;;;;278.95;255.70;;;;;;;;;;5019418;28;20099;-57
2023/09/07 08:19:19;;;;;;;277.23;257.50;;;;;;;;;;5027679;28;20519;-58
2023/09/07 08:21:45;;;;;;;282.75;259.75;;;;;;;;;;5022275;28;20021;-57
2023/09/07 08:24:10;;;;;;;219.25;203.25;;;;;;;;;;5021467;28;20080;-57
2023/09/07 08:26:36;;;;;;;143.33;133.40;;;;;;;;;;5012522;28;20049;-57
2023/09/07 08:29:05;;;;;;;279.30;252.60;;;;;;;;;;5012486;28;20385;-58
2023/09/07 08:31:30;;;;;;;264.80;245.93;;;;;;;;;;5029560;28;20467;-57
2023/09/07 08:33:55;;;;;;;187.97;172.23;;;;;;;;;;5034851;28;20097;-58
2023/09/07 08:36:22;;;;;;;207.00;191.37;;;;;;;;;;5026286;28;20392;-58
2023/09/07 08:38:47;;;;;;;248.95;230.18;;;;;;;;;;5032344;28;20021;-57
2023/09/07 08:41:13;;;;;;;207.57;191.95;;;;;;;;;;5030470;28;20048;-59
2023/09/07 08:43:41;;;;;;;268.30;247.30;;;;;;;;;;5030244;28;20120;-57
2023/09/07 08:46:23;;;;;;;194.55;181.10;;;;;;;;;;5044566;28;20025;-58
2023/09/07 08:48:49;;;;;;;138.15;125.78;;;;;;;;;;5027064;28;20560;-58
2023/09/07 08:51:15;;;;;;;221.80;204.32;;;;;;;;;;5026669;28;20052;-57
2023/09/07 08:53:40;;;;;;;251.48;229.27;;;;;;;;;;5026896;28;20025;-57
2023/09/07 08:56:06;;;;;;;341.40;315.70;;;;;;;;;;5031976;28;20480;-57
2023/09/07 08:58:31;;;;;;;315.00;283.90;;;;;;;;;;5025914;28;20497;-58
2023/09/07 09:00:57;;;;;;;389.10;290.38;;;;;;;;;;5045955;28;20100;-58
2023/09/07 09:03:22;;;;;;;245.00;225.15;;;;;;;;;;5023309;28;20179;-57
2023/09/07 09:05:49;;;;;;;369.33;336.57;;;;;;;;;;5018567;28;20112;-58
2023/09/07 09:08:20;;;;;;;452.50;418.42;;;;;;;;;;5025876;28;20026;-58
2023/09/07 09:10:45;;;;;;;292.30;269.70;;;;;;;;;;5030363;28;20485;-58
2023/09/07 09:13:11;;;;;;;279.40;258.07;;;;;;;;;;5036434;28;20020;-58
2023/09/07 09:15:36;;;;;;;330.52;303.00;;;;;;;;;;5039091;28;20025;-58
2023/09/07 09:18:08;;;;;;;350.70;322.40;;;;;;;;;;5019614;28;20052;-58
2023/09/07 09:20:34;;;;;;;357.73;327.48;;;;;;;;;;5011215;28;20026;-58
2023/09/07 09:23:04;;;;;;;361.25;327.85;;;;;;;;;;5011802;28;20060;-58
2023/09/07 09:25:30;;;;;;;395.17;355.92;;;;;;;;;;5024865;28;20029;-58
2023/09/07 09:27:56;;;;;;;263.23;242.57;;;;;;;;;;5038511;28;20391;-58
2023/09/07 09:30:21;;;;;;;237.77;218.50;;;;;;;;;;5032250;28;20030;-57
2023/09/07 09:32:46;;;;;;;316.97;291.43;;;;;;;;;;5023126;28;20025;-58
2023/09/07 09:35:11;;;;;;;280.38;258.92;;;;;;;;;;5030087;28;20391;-57
2023/09/07 09:37:43;;;;;;;265.37;244.90;;;;;;;;;;5031427;28;20028;-59
2023/09/07 09:40:10;;;;;;;335.17;310.25;;;;;;;;;;5024272;28;20022;-57
2023/09/07 09:42:35;;;;;;;186.27;169.30;;;;;;;;;;5044495;28;20116;-58
2023/09/07 09:45:01;;;;;;;249.30;226.35;;;;;;;;;;5038434;28;20615;-58
2023/09/07 09:47:28;;;;;;;341.33;312.90;;;;;;;;;;5012835;28;20018;-58
2023/09/07 09:49:54;;;;;;;300.35;273.38;;;;;;;;;;5010962;28;20201;-57
2023/09/07 09:52:19;;;;;;;;;;;;;;;;;;5013738;28;20029;-58
2023/09/07 09:54:45;;;;;;;327.90;300.92;;;;;;;;;;5018791;28;19910;-58
2023/09/07 09:57:10;;;;;;;366.15;328.80;;;;;;;;;;5030461;28;20199;-58
2023/09/07 09:59:35;;;;;;;367.90;331.60;;;;;;;;;;5028405;28;20037;-58
2023/09/07 10:02:01;;;;;;;;;;;;;;;;;;5018211;28;20014;-59
2023/09/07 10:04:29;;;;;;;325.25;298.40;;;;;;;;;;5017477;28;19931;-58
2023/09/07 10:07:05;;;;;;;288.33;265.65;;;;;;;;;;5030738;28;20112;-57
2023/09/07 10:09:32;;;;;;;281.55;261.33;;;;;;;;;;5029029;28;20053;-57
2023/09/07 10:11:59;;;;;;;335.45;308.05;;;;;;;;;;5022296;28;20048;-57
2023/09/07 10:14:24;;;;;;;264.48;243.40;;;;;;;;;;5029260;28;20025;-57
2023/09/07 10:16:52;;;;;;;315.57;291.13;;;;;;;;;;5026019;28;20021;-59
2023/09/07 10:19:18;;;;;;;290.10;266.55;;;;;;;;;;5030327;28;20554;-58
2023/09/07 10:21:44;;;;;;;271.52;248.75;;;;;;;;;;5030434;28;20026;-58
2023/09/07 10:24:09;;;;;;;343.15;313.63;;;;;;;;;;5030848;28;20109;-59
2023/09/07 10:26:34;;;;;;;;;;;;;;;;;;5027947;28;20053;-58
2023/09/07 10:29:00;;;;;;;392.60;360.77;;;;;;;;;;5027809;28;20283;-58
2023/09/07 10:31:25;;;;;;;474.13;435.77;;;;;;;;;;5022205;28;20071;-58
2023/09/07 10:33:51;;;;;;;457.20;415.27;;;;;;;;;;5030741;28;20104;-58
2023/09/07 10:36:23;;;;;;;503.20;455.08;;;;;;;;;;5030185;28;20463;-58
2023/09/07 10:38:48;;;;;;;548.60;502.23;;;;;;;;;;5030271;28;20160;-58
2023/09/07 10:41:13;;;;;;;;;;;;;;;;;;5036220;28;20104;-58
2023/09/07 10:43:46;;;;;;;438.08;399.45;;;;;;;;;;5019398;28;19977;-57
2023/09/07 10:46:11;;;;;;;532.95;447.42;;;;;;;;;;5023493;28;20037;-58
2023/09/07 10:48:36;;;;;;;432.17;393.43;;;;;;;;;;5036579;28;20028;-59
2023/09/07 10:51:02;;;;;;;;;;;;;;;;;;5033045;28;22197;-59
2023/09/07 10:53:28;;;;;;;444.02;405.35;;;;;;;;;;5021894;28;19964;-57
2023/09/07 10:55:55;;;;;;;398.05;363.48;;;;;;;;;;5031329;28;20014;-58
2023/09/07 10:58:24;;;;;;;435.02;390.98;;;;;;;;;;5023976;28;20026;-58
2023/09/07 11:00:52;;;;;;;397.58;366.27;;;;;;;;;;5031073;28;20507;-59
2023/09/07 11:03:17;;;;;;;451.95;408.38;;;;;;;;;;5032553;28;20014;-57
2023/09/07 11:05:42;;;;;;;;;;;;;;;;;;5016184;28;20515;-58
2023/09/07 11:08:07;;;;;;;400.80;365.95;;;;;;;;;;5018115;28;19916;-58
2023/09/07 11:10:36;;;;;;;572.03;518.60;;;;;;;;;;5020439;28;20397;-59
2023/09/07 11:13:03;;;;;;;518.72;469.17;;;;;;;;;;5028490;28;20448;-59
2023/09/07 11:15:29;;;;;;;510.42;456.30;;;;;;;;;;5021815;28;20052;-58
2023/09/07 11:17:54;;;;;;;;;;;;;;;;;;5030349;28;20053;-58
2023/09/07 11:20:21;;;;;;;383.80;342.48;;;;;;;;;;5023350;28;20350;-59
2023/09/07 11:22:46;;;;;;;492.98;444.00;;;;;;;;;;5029049;28;20075;-57
2023/09/07 11:25:11;;;;;;;449.23;408.83;;;;;;;;;;5024407;28;20030;-58
2023/09/07 11:27:36;;;;;;;;;;;;;;;;;;5028206;28;20014;-58
2023/09/07 11:30:04;;;;;;;462.98;418.30;;;;;;;;;;5023146;28;19960;-57
2023/09/07 11:32:33;;;;;;;576.45;518.97;;;;;;;;;;5009740;28;20394;-58
2023/09/07 11:34:58;;;;;;;419.73;378.45;;;;;;;;;;5012620;28;20026;-58
2023/09/07 11:37:23;;;;;;;;;;;;;;;;;;5014360;28;20374;-58
2023/09/07 11:39:48;;;;;;;525.40;477.73;;;;;;;;;;5040152;28;19916;-58
2023/09/07 11:42:13;;;;;;;;;;;;;;;;;;5044730;28;20049;-58
2023/09/07 11:44:38;;;;;;;456.23;413.52;;;;;;;;;;5024917;28;20292;-59
2023/09/07 11:47:04;;;;;;;;;;;;;;;;;;5028234;28;20018;-58
2023/09/07 11:49:31;;;;;;;340.95;308.15;;;;;;;;;;5032413;28;19906;-58
2023/09/07 11:51:56;;;;;;;402.70;369.40;;;;;;;;;;5024544;28;20052;-58
2023/09/07 11:54:22;;;;;;;;;;;;;;;;;;5023686;28;20135;-58
2023/09/07 11:56:48;;;;;;;589.40;530.70;;;;;;;;;;5028418;28;19909;-57
2023/09/07 11:59:13;;;;;;;;;;;;;;;;;;5015402;28;20030;-58
2023/09/07 12:01:39;;;;;;;480.20;435.33;;;;;;;;;;5016409;28;19909;-58
2023/09/07 12:04:05;;;;;;;526.30;468.83;;;;;;;;;;5015798;28;20040;-59
2023/09/07 12:06:30;;;;;;;289.92;262.42;;;;;;;;;;5028327;28;20113;-58
2023/09/07 12:08:55;;;;;;;;;;;;;;;;;;5026967;28;20096;-58
2023/09/07 12:11:20;;;;;;;574.17;520.70;;;;;;;;;;5028723;28;19954;-57
2023/09/07 12:13:46;;;;;;;;;;;;;;;;;;5014096;28;20405;-58
2023/09/07 12:16:11;;;;;;;543.08;493.55;;;;;;;;;;5026709;28;19905;-59
2023/09/07 12:18:36;;;;;;;496.20;445.67;;;;;;;;;;5026387;28;20060;-57
2023/09/07 12:21:02;;;;;;;;;;;;;;;;;;5031413;28;20017;-58
2023/09/07 12:23:27;;;;;;;515.38;465.33;;;;;;;;;;5019341;28;19992;-58
2023/09/07 12:25:52;;;;;;;;;;;;;;;;;;5025759;28;20036;-58
2023/09/07 12:28:17;;;;;;;606.20;552.65;;;;;;;;;;5025751;28;19976;-58
2023/09/07 12:30:44;;;;;;;427.37;388.17;;;;;;;;;;5020109;28;20033;-57
2023/09/07 12:33:09;;;;;;;347.38;313.70;;;;;;;;;;5020166;28;20025;-58
2023/09/07 12:35:34;;;;;;;;;;;;;;;;;;5022445;28;20048;-57
2023/09/07 12:37:59;;;;;;;727.17;574.20;;;;;;;;;;5023805;28;20304;-57
2023/09/07 12:40:24;;;;;;;;;;;;;;;;;;5028468;28;20029;-57
2023/09/07 12:42:50;;;;;;;535.17;488.38;;;;;;;;;;5030408;28;19967;-57
2023/09/07 12:45:15;;;;;;;;;;;;;;;;;;5023778;28;20014;-56
2023/09/07 12:47:40;;;;;;;484.73;438.37;;;;;;;;;;5031912;28;19912;-58
2023/09/07 12:50:06;;;;;;;;;;;;;;;;;;5031341;28;20036;-58
2023/09/07 12:52:32;;;;;;;489.25;445.60;;;;;;;;;;5023190;28;19927;-58
2023/09/07 12:54:57;;;;;;;;;;;;;;;;;;5020152;28;20456;-58
2023/09/07 12:57:22;;;;;;;570.90;505.65;;;;;;;;;;5041735;28;19916;-58
2023/09/07 12:59:49;;;;;;;;;;;;;;;;;;5020758;28;20046;-58
2023/09/07 13:02:14;;;;;;;448.55;404.73;;;;;;;;;;5030842;28;20005;-57
2023/09/07 13:04:39;;;;;;;;;;;;;;;;;;5032426;28;20028;-57
2023/09/07 13:07:05;;;;;;;529.57;483.83;;;;;;;;;;5029141;28;20269;-58
2023/09/07 13:09:30;;;;;;;540.40;496.20;;;;;;;;;;5026796;28;20029;-58
2023/09/07 13:11:55;;;;;;;;;;;;;;;;;;5041217;28;20796;-56
2023/09/07 13:14:20;;;;;;;610.90;540.03;;;;;;;;;;5025929;28;19948;-57
2023/09/07 13:16:45;;;;;;;;;;;;;;;;;;5038300;28;20097;-57
2023/09/07 13:19:11;;;;;;;544.60;487.55;;;;;;;;;;5043032;28;20292;-57
2023/09/07 13:21:36;;;;;;;;;;;;;;;;;;5021074;28;20056;-58
2023/09/07 13:24:01;;;;;;;378.17;342.75;;;;;;;;;;5037440;28;19917;-58
2023/09/07 13:26:26;;;;;;;;;;;;;;;;;;5029969;28;20018;-62
2023/09/07 13:28:51;;;;;;;536.10;480.13;;;;;;;;;;5015060;28;19909;-58
2023/09/07 13:31:16;;;;;;;;;;;;;;;;;;5022737;28;20013;-57
2023/09/07 13:33:41;;;;;;;532.50;480.27;;;;;;;;;;5028282;28;20365;-57
2023/09/07 13:36:07;;;;;;;496.57;447.57;;;;;;;;;;5020689;28;20026;-57
2023/09/07 13:38:32;;;;;;;488.02;446.10;;;;;;;;;;5019854;28;20040;-58
2023/09/07 13:40:57;;;;;;;;;;;;;;;;;;5025722;28;20027;-56
2023/09/07 13:43:22;;;;;;;616.58;555.00;;;;;;;;;;5020363;28;19924;-57
2023/09/07 13:45:48;;;;;;;582.43;519.53;;;;;;;;;;5017397;28;20417;-56
2023/09/07 13:48:13;;;;;;;560.53;506.00;;;;;;;;;;5019040;28;20025;-56
2023/09/07 13:50:39;;;;;;;425.83;390.50;;;;;;;;;;5017634;28;20464;-57
2023/09/07 13:53:04;;;;;;;605.55;548.55;;;;;;;;;;5019352;28;20136;-57
2023/09/07 13:55:29;;;;;;;561.77;507.90;;;;;;;;;;5023112;28;20041;-57
2023/09/07 13:57:54;;;;;;;572.40;517.13;;;;;;;;;;5016640;28;20018;-57
2023/09/07 14:00:19;;;;;;;;;;;;;;;;;;5015848;28;20029;-58